Time;durP1;ratioP1;P1;durP2;ratioP2;P2;SDS_P1;SDS_P2;PMS_P1;PMS_P2;Temp;Humidity;BMP_temperature;BMP_pressure;BME280_temperature;BME280_humidity;BME280_pressure;Samples;Min_cycle;Max_cycle;Signal;HPM_P1;HPM_P2
2020/12/11 00:03:29;;;;;;;43.60;33.07;;;;;;;5.63;63.12;96892.91;8341634;28;20205;-78
2020/12/11 00:07:34;;;;;;;42.17;32.37;;;;;;;5.61;63.20;96896.47;8332845;28;20208;-77
2020/12/11 00:11:37;;;;;;;45.67;32.87;;;;;;;5.55;62.70;96889.00;8331095;28;20225;-77
2020/12/11 00:15:38;;;;;;;45.00;33.20;;;;;;;5.49;63.18;96882.41;8331392;28;20200;-77
2020/12/11 00:19:40;;;;;;;50.33;36.30;;;;;;;5.27;63.21;96864.44;8331206;28;20236;-77
2020/12/11 00:23:42;;;;;;;44.60;32.97;;;;;;;5.21;63.59;96865.53;8331754;28;20216;-77
2020/12/11 00:27:45;;;;;;;46.20;34.37;;;;;;;5.21;63.25;96874.97;8331042;28;20211;-77
2020/12/11 00:31:47;;;;;;;43.53;32.67;;;;;;;5.23;63.55;96875.75;8330292;28;20197;-77
2020/12/11 00:35:49;;;;;;;46.13;33.90;;;;;;;5.35;62.83;96875.25;8330825;28;20207;-77
2020/12/11 00:39:50;;;;;;;51.70;34.70;;;;;;;5.07;64.42;96867.84;8329771;28;20208;-77
2020/12/11 00:43:53;;;;;;;53.17;37.00;;;;;;;5.04;64.55;96867.94;8330323;28;20248;-76
2020/12/11 00:47:56;;;;;;;50.47;36.07;;;;;;;5.05;64.92;96867.06;8330848;28;20212;-78
2020/12/11 00:51:58;;;;;;;54.63;37.30;;;;;;;5.07;64.80;96871.22;8331416;28;20511;-75
2020/12/11 00:56:00;;;;;;;50.60;35.87;;;;;;;5.30;64.23;96859.22;8329832;28;20209;-75
2020/12/11 01:00:04;;;;;;;52.25;39.10;;;;;;;5.60;62.55;96858.84;8327658;28;20499;-74
2020/12/11 01:04:06;;;;;;;45.77;35.20;;;;;;;5.18;64.02;96864.81;8329817;28;20204;-74
2020/12/11 01:08:08;;;;;;;47.93;35.63;;;;;;;5.03;64.73;96861.16;8329945;28;20530;-74
2020/12/11 01:12:09;;;;;;;49.13;35.50;;;;;;;5.32;63.63;96849.72;8330127;28;20231;-74
2020/12/11 01:16:12;;;;;;;47.77;34.67;;;;;;;5.34;63.66;96850.47;8335808;28;20208;-74
2020/12/11 01:20:14;;;;;;;46.97;34.10;;;;;;;5.28;64.02;96848.16;8335387;28;20201;-74
2020/12/11 01:24:19;;;;;;;50.87;37.00;;;;;;;5.07;64.35;96844.75;8335804;28;20241;-74
2020/12/11 01:28:21;;;;;;;47.13;34.97;;;;;;;5.12;64.56;96841.97;8335819;28;20617;-74
2020/12/11 01:32:23;;;;;;;51.67;37.17;;;;;;;4.94;64.83;96836.69;8337073;28;20699;-74
2020/12/11 01:36:26;;;;;;;57.27;38.20;;;;;;;4.92;65.05;96842.78;8335798;28;20625;-74
2020/12/11 01:40:34;;;;;;;54.10;37.03;;;;;;;5.18;64.76;96834.03;8335058;28;20276;-74
2020/12/11 01:44:36;;;;;;;48.23;35.57;;;;;;;4.99;65.43;96831.34;8336217;28;20530;-73
2020/12/11 01:48:38;;;;;;;52.20;36.77;;;;;;;4.87;65.75;96825.00;8334584;28;20244;-73
2020/12/11 01:52:40;;;;;;;50.20;35.20;;;;;;;4.94;65.67;96823.88;8335055;28;20224;-74
2020/12/11 01:56:47;;;;;;;55.47;37.67;;;;;;;4.95;66.03;96828.09;8335317;28;20227;-74
2020/12/11 02:00:50;;;;;;;52.87;35.43;;;;;;;4.89;65.91;96825.78;8335252;28;20189;-74
2020/12/11 02:04:53;;;;;;;54.80;34.73;;;;;;;4.78;66.48;96808.25;8302267;28;20644;-73
2020/12/11 02:08:56;;;;;;;56.57;36.97;;;;;;;5.13;65.63;96815.44;8302351;28;20660;-74
2020/12/11 02:13:04;;;;;;;52.73;33.57;;;;;;;5.32;64.99;96810.38;8302037;28;20263;-73
2020/12/11 02:17:07;;;;;;;51.00;32.47;;;;;;;5.34;65.09;96817.09;8302077;28;20197;-74
2020/12/11 02:21:10;;;;;;;50.90;31.93;;;;;;;5.31;65.25;96813.81;8302475;28;20633;-73
2020/12/11 02:25:12;;;;;;;50.97;32.23;;;;;;;5.40;65.09;96808.31;8301741;28;20556;-74
2020/12/11 02:29:14;;;;;;;51.70;33.07;;;;;;;5.48;64.67;96803.69;8301239;28;20208;-74
2020/12/11 02:33:16;;;;;;;52.63;32.10;;;;;;;5.38;64.73;96795.53;8300758;28;20260;-74
2020/12/11 02:37:17;;;;;;;57.03;33.23;;;;;;;5.33;64.81;96792.34;8300806;28;20208;-74
2020/12/11 02:41:20;;;;;;;51.37;30.60;;;;;;;5.29;64.79;96773.66;8300806;28;20619;-74
2020/12/11 02:45:21;;;;;;;52.50;33.30;;;;;;;5.30;65.01;96753.94;8301748;28;20275;-74
2020/12/11 02:49:23;;;;;;;56.53;32.53;;;;;;;4.94;65.96;96753.75;8300985;28;20201;-74
2020/12/11 02:53:25;;;;;;;52.03;32.17;;;;;;;5.12;65.92;96745.28;8300579;28;20225;-74
2020/12/11 02:57:28;;;;;;;50.70;31.40;;;;;;;4.99;65.81;96733.84;8300283;28;20208;-74
2020/12/11 03:01:30;;;;;;;54.53;32.63;;;;;;;4.62;67.04;96725.94;8300133;28;20205;-74
2020/12/11 03:05:31;;;;;;;52.23;31.20;;;;;;;4.75;67.01;96715.19;8300711;28;20209;-74
2020/12/11 03:09:33;;;;;;;48.10;29.83;;;;;;;4.55;67.82;96711.72;8300799;28;20225;-74
2020/12/11 03:13:36;;;;;;;51.63;30.93;;;;;;;4.70;67.34;96715.38;8299936;28;20224;-73
2020/12/11 03:17:37;;;;;;;53.83;30.63;;;;;;;4.82;66.88;96707.19;8300426;28;20597;-73
2020/12/11 03:21:39;;;;;;;59.57;32.87;;;;;;;4.59;67.29;96697.03;8299255;28;20201;-74
2020/12/11 03:25:41;;;;;;;50.23;30.43;;;;;;;4.58;67.84;96680.00;8299589;28;20648;-73
2020/12/11 03:29:43;;;;;;;49.27;29.50;;;;;;;4.73;67.51;96688.78;8299614;28;20202;-73
2020/12/11 03:33:45;;;;;;;51.87;30.90;;;;;;;4.64;67.53;96679.72;8299260;28;20273;-74
2020/12/11 03:37:47;;;;;;;51.97;30.53;;;;;;;4.40;68.22;96673.84;8298250;28;20201;-73
2020/12/11 03:41:50;;;;;;;50.63;30.13;;;;;;;4.37;68.61;96672.25;8299230;28;20201;-73
2020/12/11 03:45:53;;;;;;;50.27;28.97;;;;;;;4.42;68.93;96652.41;8299166;28;20331;-73
2020/12/11 03:49:54;;;;;;;46.37;27.03;;;;;;;4.47;68.07;96654.78;8338228;22;20223;-81
2020/12/11 03:53:57;;;;;;;47.40;27.37;;;;;;;4.34;68.63;96653.59;8375511;28;20234;-81
2020/12/11 03:57:59;;;;;;;48.83;27.67;;;;;;;4.11;68.92;96656.22;8377569;28;20195;-80
2020/12/11 04:02:02;;;;;;;43.03;27.57;;;;;;;4.20;69.03;96652.44;8388798;28;20195;-81
2020/12/11 04:06:06;;;;;;;48.83;28.10;;;;;;;4.14;69.01;96639.03;8412548;28;20223;-81
2020/12/11 04:10:08;;;;;;;45.03;26.13;;;;;;;4.25;69.12;96637.72;8411355;28;20203;-81
2020/12/11 04:14:09;;;;;;;39.90;24.47;;;;;;;4.16;69.25;96624.44;8413520;28;20238;-81
2020/12/11 04:18:12;;;;;;;38.50;24.13;;;;;;;4.19;69.03;96614.91;8416956;28;20203;-81
2020/12/11 04:22:13;;;;;;;33.97;22.90;;;;;;;4.26;68.64;96610.34;8415885;28;20206;-81
2020/12/11 04:26:15;;;;;;;32.63;21.63;;;;;;;4.31;68.49;96608.44;8414158;28;20240;-81
2020/12/11 04:30:17;;;;;;;34.87;20.73;;;;;;;4.28;69.02;96608.56;8414154;28;20301;-81
2020/12/11 04:34:20;;;;;;;32.93;21.33;;;;;;;4.20;68.82;96608.03;8413421;28;20230;-81
2020/12/11 04:38:21;;;;;;;32.60;19.60;;;;;;;4.33;68.08;96598.13;8413989;28;20207;-80
2020/12/11 04:42:23;;;;;;;35.37;21.43;;;;;;;4.22;68.43;96598.56;8416442;28;20195;-82
2020/12/11 04:46:26;;;;;;;30.50;20.13;;;;;;;4.28;68.81;96598.31;8416931;28;20199;-81
2020/12/11 04:50:30;;;;;;;30.77;19.13;;;;;;;4.61;67.44;96608.91;8419720;28;20239;-80
2020/12/11 04:54:36;;;;;;;28.57;18.30;;;;;;;4.40;67.60;96581.56;8415889;28;20222;-80
2020/12/11 04:58:44;;;;;;;30.13;19.07;;;;;;;4.45;67.18;96579.66;8408769;28;20187;-77
2020/12/11 05:02:47;;;;;;;28.23;18.27;;;;;;;4.30;67.39;96573.44;8398710;28;20187;-77
2020/12/11 05:06:51;;;;;;;27.80;18.40;;;;;;;4.35;66.72;96568.16;8397950;28;20222;-77
2020/12/11 05:10:52;;;;;;;26.33;18.40;;;;;;;4.35;66.47;96563.84;8398138;28;20203;-77
2020/12/11 05:14:55;;;;;;;24.03;16.63;;;;;;;4.43;66.32;96550.69;8398048;28;20274;-77
2020/12/11 05:19:04;;;;;;;24.60;16.43;;;;;;;4.23;66.11;96549.00;8399754;28;20206;-77
2020/12/11 05:23:08;;;;;;;25.23;16.97;;;;;;;4.43;65.17;96545.56;8399429;28;20603;-77
2020/12/11 05:27:28;;;;;;;25.50;17.70;;;;;;;4.24;65.87;96543.78;8398646;28;20210;-77
2020/12/11 05:31:30;;;;;;;23.03;16.93;;;;;;;4.44;65.36;96549.81;8398618;28;20195;-77
2020/12/11 05:35:32;;;;;;;23.57;17.40;;;;;;;3.75;66.57;96539.81;8397782;28;20262;-77
2020/12/11 05:39:35;;;;;;;24.23;17.53;;;;;;;4.22;65.55;96555.00;8399857;28;20210;-79
2020/12/11 05:43:37;;;;;;;22.00;16.73;;;;;;;4.17;65.50;96550.06;8404569;28;20579;-77
2020/12/11 05:47:38;;;;;;;22.87;17.03;;;;;;;4.28;64.98;96553.03;8410942;28;20742;-79
2020/12/11 05:51:40;;;;;;;20.27;16.03;;;;;;;4.22;64.18;96555.00;8412779;28;20231;-79
2020/12/11 05:55:43;;;;;;;18.90;14.60;;;;;;;4.33;63.46;96552.00;8414970;28;20246;-80
2020/12/11 05:59:44;;;;;;;18.73;15.50;;;;;;;4.15;64.05;96561.28;8415236;28;20570;-80
2020/12/11 06:03:46;;;;;;;17.03;14.57;;;;;;;4.14;64.04;96564.75;8392572;28;20216;-80
2020/12/11 06:07:50;;;;;;;20.40;16.10;;;;;;;4.11;64.23;96546.03;8387087;28;20540;-80
2020/12/11 06:11:58;;;;;;;20.40;15.43;;;;;;;3.96;64.56;96527.88;8386093;28;20298;-82
2020/12/11 06:16:01;;;;;;;19.57;15.27;;;;;;;3.91;64.74;96534.03;8385286;28;20618;-81
2020/12/11 06:20:07;;;;;;;20.30;15.90;;;;;;;3.53;65.49;96533.00;8383891;28;20237;-81
2020/12/11 06:24:27;;;;;;;19.53;15.57;;;;;;;3.78;65.48;96526.91;8375580;28;20199;-78
2020/12/11 06:28:43;;;;;;;19.40;15.27;;;;;;;3.45;65.81;96524.78;8378207;28;20188;-79
2020/12/11 06:32:45;;;;;;;16.00;14.30;;;;;;;3.39;66.43;96537.81;8379065;28;20203;-79
2020/12/11 06:36:48;;;;;;;20.33;16.23;;;;;;;3.47;66.30;96525.56;8379709;28;20195;-79
2020/12/11 06:40:50;;;;;;;19.37;15.97;;;;;;;3.43;66.38;96522.28;8380182;28;20655;-80
2020/12/11 06:44:53;;;;;;;21.77;17.13;;;;;;;3.15;67.39;96542.16;8380769;28;20200;-81
2020/12/11 06:49:06;;;;;;;18.57;16.57;;;;;;;3.21;67.32;96531.69;8384723;28;20204;-80
2020/12/11 06:53:39;;;;;;;19.20;16.97;;;;;;;3.17;67.95;96523.28;8383020;28;20224;-81
2020/12/11 06:57:43;;;;;;;19.67;17.57;;;;;;;3.42;66.93;96523.16;8374844;28;20199;-79
2020/12/11 07:01:45;;;;;;;18.50;16.57;;;;;;;3.41;66.08;96524.09;8351175;28;20227;-78
2020/12/11 07:05:56;;;;;;;19.13;17.13;;;;;;;3.37;66.06;96516.56;8369760;28;20278;-78
2020/12/11 07:09:58;;;;;;;20.07;17.50;;;;;;;3.09;67.18;96513.34;8370020;28;20601;-78
2020/12/11 07:13:59;;;;;;;22.00;19.53;;;;;;;3.30;66.44;96521.94;8368840;28;20234;-78
2020/12/11 07:18:02;;;;;;;20.77;18.43;;;;;;;3.34;65.56;96509.84;8368023;28;20195;-79
2020/12/11 07:22:04;;;;;;;22.57;20.20;;;;;;;3.47;66.20;96525.56;8368259;28;20208;-78
2020/12/11 07:26:06;;;;;;;24.17;21.33;;;;;;;3.15;67.68;96517.41;8367667;28;20280;-79
2020/12/11 07:30:08;;;;;;;23.17;20.50;;;;;;;3.64;66.59;96504.44;8366769;28;20204;-79
2020/12/11 07:34:12;;;;;;;23.73;21.20;;;;;;;3.78;65.68;96496.19;8367212;28;20413;-77
2020/12/11 07:38:16;;;;;;;25.30;22.07;;;;;;;3.74;66.00;96492.09;8367507;28;20202;-79
2020/12/11 07:42:20;;;;;;;26.00;22.67;;;;;;;3.72;65.74;96490.41;8368191;28;20243;-78
2020/12/11 07:46:23;;;;;;;25.53;22.83;;;;;;;3.83;65.11;96484.84;8368081;28;20208;-78
2020/12/11 07:50:27;;;;;;;24.33;21.73;;;;;;;3.80;65.38;96479.03;8366763;28;20239;-79
2020/12/11 07:54:35;;;;;;;29.30;23.33;;;;;;;3.91;65.10;96481.97;8375037;28;20234;-79
2020/12/11 07:58:37;;;;;;;26.70;23.13;;;;;;;3.70;65.71;96479.41;8373645;28;20199;-79
2020/12/11 08:02:39;;;;;;;27.00;23.97;;;;;;;3.63;65.24;96475.41;8370820;28;20224;-79
2020/12/11 08:06:41;;;;;;;26.97;22.90;;;;;;;3.89;65.05;96458.16;8367311;28;20235;-78
2020/12/11 08:10:44;;;;;;;25.50;22.80;;;;;;;4.00;64.45;96465.38;8367633;28;20208;-78
2020/12/11 08:14:45;;;;;;;26.23;23.43;;;;;;;3.81;64.46;96465.31;8366666;28;20548;-78
2020/12/11 08:18:48;;;;;;;25.90;22.47;;;;;;;3.91;64.25;96466.63;8366924;28;20555;-79
2020/12/11 08:22:51;;;;;;;28.23;23.93;;;;;;;3.67;64.65;96464.16;8365614;28;20281;-78
2020/12/11 08:26:52;;;;;;;26.53;22.13;;;;;;;3.92;64.28;96474.25;8365707;28;20214;-78
2020/12/11 08:30:54;;;;;;;28.37;24.03;;;;;;;4.18;63.69;96464.59;8365680;28;20262;-78
2020/12/11 08:34:57;;;;;;;25.97;23.20;;;;;;;3.97;64.17;96457.84;8365563;28;20361;-78
2020/12/11 08:39:14;;;;;;;29.37;26.40;;;;;;;3.82;64.73;96446.50;8362111;28;20223;-78
2020/12/11 08:43:26;;;;;;;28.63;24.50;;;;;;;3.83;64.22;96423.41;8365873;28;20254;-79
2020/12/11 08:51:47;;;;;;;25.10;22.47;;;;;;;3.91;63.45;96438.44;8344914;28;20235;-78
2020/12/11 08:55:49;;;;;;;27.87;24.47;;;;;;;3.76;64.51;96429.66;8365407;28;20251;-78
2020/12/11 08:59:51;;;;;;;25.67;22.90;;;;;;;3.87;64.19;96424.94;8340391;28;20220;-79
2020/12/11 09:03:53;;;;;;;24.30;21.90;;;;;;;3.86;64.31;96423.25;8388440;28;20219;-79
2020/12/11 09:07:54;;;;;;;24.63;22.03;;;;;;;4.04;63.91;96420.81;8403120;28;20203;-79
2020/12/11 09:11:57;;;;;;;25.07;22.37;;;;;;;3.97;63.57;96420.25;8403870;28;20199;-79
2020/12/11 09:15:59;;;;;;;24.60;22.10;;;;;;;3.99;63.67;96421.00;8405290;28;20555;-79
2020/12/11 09:20:00;;;;;;;24.90;22.30;;;;;;;3.70;64.44;96420.50;8405002;28;20195;-78
2020/12/11 09:24:02;;;;;;;26.00;21.60;;;;;;;3.67;64.37;96415.50;8407037;28;20256;-79
2020/12/11 09:28:11;;;;;;;25.97;23.27;;;;;;;3.95;63.79;96405.84;8406976;28;20207;-79
2020/12/11 09:32:17;;;;;;;23.60;21.07;;;;;;;3.78;63.75;96409.13;8404341;28;20188;-80
2020/12/11 09:36:19;;;;;;;23.63;21.23;;;;;;;3.95;63.56;96396.44;8409072;28;20211;-79
2020/12/11 09:40:25;;;;;;;23.50;21.10;;;;;;;3.83;64.13;96387.53;8382852;28;20228;-79
2020/12/11 09:48:51;;;;;;;23.53;21.13;;;;;;;4.29;62.24;96379.59;8370635;28;20307;-78
2020/12/11 09:53:03;;;;;;;23.77;21.40;;;;;;;4.25;61.95;96358.38;8371340;28;20231;-78
2020/12/11 09:57:04;;;;;;;23.17;20.67;;;;;;;4.46;62.39;96371.13;8369785;28;20185;-76
2020/12/11 10:01:08;;;;;;;22.47;20.27;;;;;;;4.44;62.38;96366.06;8369028;28;20199;-77
2020/12/11 10:05:10;;;;;;;22.50;20.00;;;;;;;4.71;62.27;96363.16;8368885;28;20696;-77
2020/12/11 10:09:12;;;;;;;22.50;20.30;;;;;;;4.24;61.59;96366.97;8372448;28;20290;-77
2020/12/11 10:13:14;;;;;;;23.30;21.00;;;;;;;4.34;61.80;96364.84;8375305;28;20210;-77
2020/12/11 10:17:16;;;;;;;22.77;20.47;;;;;;;4.22;61.92;96365.38;8374851;28;20561;-77
2020/12/11 10:21:18;;;;;;;23.40;20.93;;;;;;;4.12;63.02;96364.94;8373274;28;20210;-77
2020/12/11 10:25:21;;;;;;;22.80;20.50;;;;;;;3.78;63.69;96368.16;8373865;28;20211;-77
2020/12/11 10:29:23;;;;;;;23.73;21.40;;;;;;;3.77;63.99;96357.09;8373458;28;20323;-78
2020/12/11 10:33:26;;;;;;;23.00;20.63;;;;;;;4.15;62.99;96361.41;8372580;28;20207;-78
2020/12/11 10:37:27;;;;;;;23.60;21.17;;;;;;;3.97;63.98;96353.66;8372418;28;20209;-77
2020/12/11 10:41:29;;;;;;;24.20;21.80;;;;;;;4.22;63.05;96343.13;8372538;28;20196;-77
2020/12/11 10:45:31;;;;;;;24.17;21.67;;;;;;;3.84;63.73;96326.91;8372590;28;20220;-76
2020/12/11 10:49:41;;;;;;;23.17;20.87;;;;;;;4.08;63.34;96322.44;8373735;28;20345;-78
2020/12/11 10:53:44;;;;;;;23.43;20.87;;;;;;;4.03;63.49;96314.94;8373286;28;20227;-77
2020/12/11 10:57:46;;;;;;;23.10;20.70;;;;;;;3.99;63.12;96326.22;8369015;28;20641;-77
2020/12/11 11:01:48;;;;;;;24.17;20.30;;;;;;;4.15;63.36;96328.97;8368511;28;20265;-76
2020/12/11 11:05:52;;;;;;;23.17;20.73;;;;;;;4.09;62.92;96327.50;8368327;28;20223;-77
2020/12/11 11:10:03;;;;;;;23.73;21.33;;;;;;;3.97;63.45;96311.84;8367648;28;20218;-77
2020/12/11 11:14:16;;;;;;;25.47;22.97;;;;;;;4.38;62.76;96316.81;8367959;28;20220;-77
2020/12/11 11:18:31;;;;;;;24.03;21.63;;;;;;;4.46;61.65;96301.94;8367670;28;20199;-77
2020/12/11 11:22:52;;;;;;;24.60;21.97;;;;;;;4.15;62.68;96295.66;8367902;28;20188;-77
2020/12/11 11:27:05;;;;;;;22.80;20.47;;;;;;;4.24;62.45;96305.47;8367716;28;20219;-78
2020/12/11 11:31:10;;;;;;;23.40;21.03;;;;;;;4.52;62.77;96304.19;8367442;28;20195;-79
2020/12/11 11:35:12;;;;;;;23.60;21.07;;;;;;;4.69;61.24;96306.78;8369186;28;20223;-76
2020/12/11 11:39:14;;;;;;;27.40;21.50;;;;;;;4.60;60.99;96304.66;8367735;28;20200;-78
2020/12/11 11:43:23;;;;;;;23.03;20.73;;;;;;;4.91;60.50;96300.63;8367916;28;20331;-77
2020/12/11 11:47:25;;;;;;;24.97;22.37;;;;;;;4.86;61.08;96295.75;8368721;28;20227;-78
2020/12/11 11:51:36;;;;;;;24.40;21.77;;;;;;;4.81;61.27;96292.56;8368817;28;20726;-78
2020/12/11 11:55:40;;;;;;;24.33;21.80;;;;;;;4.70;62.05;96280.25;8367719;28;20269;-78
2020/12/11 11:59:43;;;;;;;22.83;20.53;;;;;;;4.76;61.66;96278.28;8367871;28;20559;-78
2020/12/11 12:03:44;;;;;;;25.17;22.50;;;;;;;5.13;61.00;96261.94;8365104;28;20243;-77
2020/12/11 12:07:46;;;;;;;23.17;20.77;;;;;;;5.08;60.40;96256.19;8367410;28;20206;-77
2020/12/11 12:11:49;;;;;;;23.40;21.00;;;;;;;4.84;60.99;96248.81;8367433;28;20200;-78
2020/12/11 12:15:52;;;;;;;24.77;20.17;;;;;;;5.29;61.61;96234.59;8366783;28;20246;-77
2020/12/11 12:19:58;;;;;;;21.07;18.87;;;;;;;5.16;59.81;96220.75;8367202;28;20200;-77
2020/12/11 12:33:03;;;;;;;22.60;20.20;;;;;;;4.87;59.68;96217.91;8367500;28;20195;-77
2020/12/11 12:37:28;;;;;;;24.87;20.63;;;;;;;5.13;59.71;96213.19;8367008;28;20212;-78
2020/12/11 12:45:50;;;;;;;21.53;19.23;;;;;;;5.16;59.18;96218.16;8365796;28;20201;-76
2020/12/11 12:49:52;;;;;;;21.47;19.03;;;;;;;5.13;59.00;96220.88;8366017;28;20405;-77
2020/12/11 12:53:54;;;;;;;22.13;19.80;;;;;;;5.07;59.73;96200.66;8366522;28;20220;-77
2020/12/11 12:57:58;;;;;;;23.83;20.60;;;;;;;4.74;61.36;96193.75;8365908;28;20211;-77
2020/12/11 13:02:17;;;;;;;21.77;19.47;;;;;;;4.53;60.97;96198.16;8366769;28;20203;-77
2020/12/11 13:06:21;;;;;;;22.00;19.70;;;;;;;4.60;61.19;96185.91;8366330;28;20231;-77
2020/12/11 13:10:23;;;;;;;22.13;19.83;;;;;;;4.40;61.67;96182.56;8359386;28;20537;-79
2020/12/11 13:14:24;;;;;;;22.40;19.90;;;;;;;4.40;61.68;96182.56;8364951;28;20223;-77
2020/12/11 13:18:27;;;;;;;21.63;19.37;;;;;;;4.67;60.64;96174.44;8372198;28;20214;-77
2020/12/11 13:22:40;;;;;;;22.97;20.47;;;;;;;4.68;61.16;96176.09;8372424;28;20203;-77
2020/12/11 13:26:45;;;;;;;22.60;20.20;;;;;;;4.84;60.81;96174.44;8372622;28;20230;-78
2020/12/11 13:30:46;;;;;;;20.47;18.30;;;;;;;4.62;61.62;96161.00;8372701;28;20560;-77
2020/12/11 13:34:50;;;;;;;22.43;20.17;;;;;;;4.85;61.19;96153.00;8372017;28;20228;-77
2020/12/11 13:38:52;;;;;;;21.57;19.20;;;;;;;4.55;61.47;96155.38;8374067;28;20207;-78
2020/12/11 13:42:54;;;;;;;23.17;18.83;;;;;;;4.07;62.05;96147.41;8372458;28;20200;-78
2020/12/11 13:46:55;;;;;;;20.67;18.57;;;;;;;4.28;62.25;96154.97;8372430;28;20207;-79
2020/12/11 13:50:59;;;;;;;23.10;19.57;;;;;;;4.13;62.52;96156.50;8368143;28;20236;-78
2020/12/11 13:55:01;;;;;;;21.13;18.70;;;;;;;4.46;61.95;96145.56;8372383;28;20237;-78
2020/12/11 13:59:03;;;;;;;22.60;19.47;;;;;;;4.23;62.78;96154.38;8370841;28;20207;-78
2020/12/11 14:03:07;;;;;;;24.43;18.93;;;;;;;4.17;63.27;96145.25;8369689;28;20200;-78
2020/12/11 14:07:10;;;;;;;22.93;19.73;;;;;;;4.35;63.48;96135.00;8369205;28;20734;-78
2020/12/11 14:11:11;;;;;;;22.73;20.07;;;;;;;4.44;63.19;96137.94;8369523;28;20207;-79
2020/12/11 14:15:13;;;;;;;21.53;19.27;;;;;;;4.29;63.07;96133.56;8368809;28;20346;-78
2020/12/11 14:19:29;;;;;;;20.17;18.00;;;;;;;4.09;63.27;96130.25;8369586;28;20230;-78
2020/12/11 14:23:32;;;;;;;20.40;18.30;;;;;;;4.29;63.17;96134.38;8370399;28;20192;-78
2020/12/11 14:27:33;;;;;;;21.30;18.80;;;;;;;4.11;63.86;96125.00;8371074;28;20214;-78
2020/12/11 14:31:35;;;;;;;23.90;19.37;;;;;;;4.48;63.11;96147.13;8370740;28;20226;-78
2020/12/11 14:35:37;;;;;;;21.30;18.80;;;;;;;4.51;63.54;96151.28;8369423;28;20314;-77
2020/12/11 14:39:40;;;;;;;21.37;18.93;;;;;;;4.59;63.24;96151.75;8370027;28;20230;-78
2020/12/11 14:43:41;;;;;;;22.17;19.77;;;;;;;4.53;63.81;96154.59;8370075;28;20243;-78
2020/12/11 14:47:43;;;;;;;22.47;19.60;;;;;;;4.28;63.82;96158.38;8371021;28;20204;-78
2020/12/11 14:51:46;;;;;;;22.03;19.63;;;;;;;4.47;64.05;96144.66;8370101;28;20246;-78
2020/12/11 14:55:49;;;;;;;22.83;19.03;;;;;;;4.59;62.98;96133.81;8369137;28;20220;-79
2020/12/11 14:59:51;;;;;;;21.63;19.43;;;;;;;4.47;63.51;96140.38;8369282;28;20207;-77
2020/12/11 15:03:56;;;;;;;21.40;19.20;;;;;;;4.35;63.82;96133.25;8369023;28;20231;-77
2020/12/11 15:07:58;;;;;;;21.23;19.03;;;;;;;4.41;64.03;96121.88;8368823;28;20207;-77
2020/12/11 15:12:00;;;;;;;21.27;19.00;;;;;;;4.15;64.49;96136.81;8369108;28;20206;-78
2020/12/11 15:16:02;;;;;;;21.53;19.23;;;;;;;4.14;64.43;96130.00;8355768;28;20232;-78
2020/12/11 15:20:05;;;;;;;22.20;19.90;;;;;;;4.38;64.62;96134.84;8368309;28;20262;-77
2020/12/11 15:24:12;;;;;;;21.87;19.67;;;;;;;4.40;64.33;96130.47;8367179;28;20211;-78
2020/12/11 15:28:14;;;;;;;22.07;19.67;;;;;;;4.38;64.37;96122.88;8367156;28;20184;-78
2020/12/11 15:32:16;;;;;;;20.90;18.73;;;;;;;4.19;65.80;96119.53;8366964;28;20702;-78
2020/12/11 15:36:19;;;;;;;21.43;19.10;;;;;;;4.18;64.84;96128.13;8366971;28;20220;-78
2020/12/11 15:40:21;;;;;;;21.87;19.23;;;;;;;3.95;65.97;96121.53;8366848;28;20207;-78
2020/12/11 15:44:24;;;;;;;22.37;19.17;;;;;;;4.01;65.52;96111.81;8366970;28;20284;-78
2020/12/11 15:48:26;;;;;;;23.90;21.20;;;;;;;3.87;66.02;96109.94;8365115;28;20199;-78
2020/12/11 15:52:27;;;;;;;22.97;20.47;;;;;;;3.67;66.72;96102.34;8333417;28;20233;-78
2020/12/11 15:56:29;;;;;;;23.97;21.37;;;;;;;3.48;67.61;96061.41;8332479;28;20228;-78
2020/12/11 16:00:32;;;;;;;21.93;19.63;;;;;;;3.71;66.98;96081.66;8333536;28;20204;-78
2020/12/11 16:04:33;;;;;;;22.47;20.07;;;;;;;3.81;66.45;96104.25;8333049;28;20232;-78
2020/12/11 16:08:35;;;;;;;21.63;19.40;;;;;;;3.89;65.81;96097.06;8332348;28;20212;-78
2020/12/11 16:12:38;;;;;;;22.93;20.47;;;;;;;3.50;66.92;96088.63;8332600;28;20200;-78
2020/12/11 16:16:41;;;;;;;22.60;20.23;;;;;;;3.77;66.99;96089.94;8333379;28;20235;-78
2020/12/11 16:20:43;;;;;;;22.47;20.07;;;;;;;3.59;67.67;96077.09;8333973;28;20211;-78
2020/12/11 16:24:44;;;;;;;23.77;21.30;;;;;;;3.86;66.75;96079.25;8332385;28;20594;-78
2020/12/11 16:28:47;;;;;;;23.80;21.40;;;;;;;3.80;66.81;96085.50;8331793;28;20291;-78
2020/12/11 16:32:49;;;;;;;25.10;22.40;;;;;;;3.67;67.26;96085.25;8331936;28;20201;-78
2020/12/11 16:36:52;;;;;;;25.37;21.63;;;;;;;3.85;66.98;96086.13;8332560;28;20224;-78
2020/12/11 16:40:53;;;;;;;24.67;22.17;;;;;;;3.75;67.50;96071.25;8331662;28;20200;-78
2020/12/11 16:45:01;;;;;;;25.13;22.53;;;;;;;3.45;68.07;96080.31;8332197;28;20283;-78
2020/12/11 16:49:09;;;;;;;24.83;22.13;;;;;;;3.43;68.72;96053.97;8333132;28;20192;-78
2020/12/11 16:53:11;;;;;;;24.57;22.07;;;;;;;3.36;68.54;96067.13;8335413;28;20219;-78
2020/12/11 16:57:13;;;;;;;24.77;22.17;;;;;;;3.49;68.29;96079.25;8333349;28;20290;-79
2020/12/11 17:01:21;;;;;;;25.97;23.20;;;;;;;3.33;68.80;96076.59;8332902;28;20205;-78
2020/12/11 17:05:40;;;;;;;24.33;21.73;;;;;;;3.76;67.81;96070.38;8333036;28;20274;-78
2020/12/11 17:09:44;;;;;;;25.43;22.83;;;;;;;3.83;67.09;96082.00;8333732;28;20189;-79
2020/12/11 17:13:51;;;;;;;26.27;22.40;;;;;;;3.74;67.30;96079.88;8332611;28;20640;-78
2020/12/11 17:17:52;;;;;;;26.33;22.03;;;;;;;3.48;68.74;96087.00;8374132;28;20222;-78
2020/12/11 17:22:00;;;;;;;24.33;21.73;;;;;;;3.84;67.04;96068.25;8398768;28;20225;-78
2020/12/11 17:26:03;;;;;;;24.53;21.83;;;;;;;3.47;68.64;96075.94;8376239;28;20215;-78
2020/12/11 17:30:13;;;;;;;23.83;20.83;;;;;;;3.70;67.73;96069.75;8349080;28;20212;-79
2020/12/11 17:34:24;;;;;;;26.20;23.07;;;;;;;3.52;68.72;96061.22;8345287;28;20219;-76
2020/12/11 17:38:27;;;;;;;24.37;21.67;;;;;;;3.77;67.60;96079.69;8364254;28;20203;-77
2020/12/11 17:42:29;;;;;;;26.37;22.97;;;;;;;3.96;66.97;96088.19;8363736;28;20203;-76
2020/12/11 17:46:30;;;;;;;24.60;22.00;;;;;;;3.98;66.93;96093.22;8364055;28;20204;-78
2020/12/11 17:50:32;;;;;;;24.77;22.17;;;;;;;3.94;66.91;96086.56;8366721;28;20257;-79
2020/12/11 17:54:35;;;;;;;25.33;22.60;;;;;;;3.90;67.32;96083.34;8366110;28;20250;-79
2020/12/11 17:58:37;;;;;;;25.03;22.40;;;;;;;3.87;67.66;96071.50;8369442;28;20713;-77
2020/12/11 18:02:38;;;;;;;24.97;22.40;;;;;;;4.04;67.13;96080.94;8370480;28;20203;-77
2020/12/11 18:06:40;;;;;;;34.77;30.97;;;;;;;3.77;68.06;96075.44;8370604;28;20796;-79
2020/12/11 18:10:45;;;;;;;25.50;22.80;;;;;;;3.87;67.48;96076.63;8370340;28;20550;-78
2020/12/11 18:14:59;;;;;;;24.20;21.80;;;;;;;4.08;66.88;96084.19;8372031;28;20219;-78
2020/12/11 18:19:01;;;;;;;24.67;22.13;;;;;;;3.92;67.22;96096.88;8372001;28;20199;-77
2020/12/11 18:23:03;;;;;;;25.63;22.90;;;;;;;3.90;67.53;96091.88;8370789;28;20206;-80
2020/12/11 18:27:06;;;;;;;29.90;23.90;;;;;;;3.99;67.61;96097.44;8375160;28;20666;-78
2020/12/11 18:31:08;;;;;;;28.50;25.40;;;;;;;3.83;67.85;96095.63;8367749;28;20590;-78
2020/12/11 18:35:11;;;;;;;32.00;26.43;;;;;;;3.79;68.21;96099.22;8369308;28;20259;-78
2020/12/11 18:39:13;;;;;;;29.33;25.13;;;;;;;3.65;68.53;96099.03;8367162;28;20651;-79
2020/12/11 18:43:16;;;;;;;28.77;25.17;;;;;;;3.86;67.77;96092.88;8368347;28;20207;-79
2020/12/11 18:47:19;;;;;;;29.67;26.53;;;;;;;3.95;67.28;96081.38;8368783;28;20529;-78
2020/12/11 18:51:21;;;;;;;26.43;23.73;;;;;;;3.98;67.61;96077.84;8368591;28;20231;-79
2020/12/11 18:55:26;;;;;;;28.50;25.47;;;;;;;3.28;69.83;96083.63;8368503;28;20568;-79
2020/12/11 18:59:29;;;;;;;29.43;26.20;;;;;;;3.33;70.04;96085.97;8368909;28;20297;-79
2020/12/11 19:03:31;;;;;;;29.30;26.30;;;;;;;3.81;68.30;96076.09;8368395;28;20674;-79
2020/12/11 19:07:33;;;;;;;29.67;26.57;;;;;;;3.91;67.68;96074.75;8368072;28;20242;-78
2020/12/11 19:11:36;;;;;;;29.93;26.50;;;;;;;3.40;69.27;96079.69;8364202;28;20203;-79
2020/12/11 19:15:38;;;;;;;30.50;26.73;;;;;;;3.65;69.26;96076.81;8366979;28;20212;-79